createdAt,value
2016-10-08T00:00:08.005Z,956.67
2016-10-08T00:01:08.160Z,956.67
2016-10-08T00:02:07.800Z,956.64
2016-10-08T00:03:07.695Z,956.64
2016-10-08T00:04:08.085Z,956.63
2016-10-08T00:05:07.903Z,956.62
2016-10-08T00:06:07.520Z,956.60
2016-10-08T00:07:09.178Z,956.61
2016-10-08T00:08:07.826Z,956.58
2016-10-08T00:09:08.107Z,956.53
2016-10-08T00:10:16.993Z,956.54
2016-10-08T00:11:07.788Z,956.54
2016-10-08T00:12:08.250Z,956.49
2016-10-08T00:13:08.993Z,956.46
2016-10-08T00:14:08.324Z,956.44
2016-10-08T00:15:07.901Z,956.41
2016-10-08T00:16:07.597Z,956.45
2016-10-08T00:17:09.972Z,956.41
2016-10-08T00:18:08.067Z,956.38
2016-10-08T00:19:07.607Z,956.41
2016-10-08T00:20:07.467Z,956.43
2016-10-08T00:21:11.012Z,956.40
2016-10-08T00:22:07.581Z,956.45
2016-10-08T00:23:08.327Z,956.44
2016-10-08T00:24:08.123Z,956.48
2016-10-08T00:25:07.543Z,956.50
2016-10-08T00:26:08.584Z,956.51
2016-10-08T00:27:07.867Z,956.49
2016-10-08T00:28:07.574Z,956.48
2016-10-08T00:29:08.215Z,956.46
2016-10-08T00:30:07.909Z,956.50
2016-10-08T00:31:07.964Z,956.47
2016-10-08T00:32:08.062Z,956.49
2016-10-08T00:33:07.875Z,956.47
2016-10-08T00:34:07.464Z,956.44
2016-10-08T00:35:08.095Z,956.46
2016-10-08T00:36:07.683Z,956.47
2016-10-08T00:37:08.154Z,956.45
2016-10-08T00:38:07.782Z,956.49
2016-10-08T00:39:09.397Z,956.47
2016-10-08T00:40:07.969Z,956.50
2016-10-08T00:41:07.546Z,956.57
2016-10-08T00:42:07.852Z,956.54
2016-10-08T00:43:07.721Z,956.57
2016-10-08T00:44:08.111Z,956.58
2016-10-08T00:45:07.845Z,956.59
2016-10-08T00:46:07.388Z,956.58
2016-10-08T00:47:08.716Z,956.59
2016-10-08T00:48:07.795Z,956.53
2016-10-08T00:49:07.354Z,956.52
2016-10-08T00:50:08.065Z,956.50
2016-10-08T00:51:07.664Z,956.48
2016-10-08T00:52:07.306Z,956.48
2016-10-08T00:53:08.231Z,956.50
2016-10-08T00:54:07.929Z,956.46
2016-10-08T00:55:07.538Z,956.47
2016-10-08T00:56:08.193Z,956.48
2016-10-08T00:57:18.365Z,956.46
2016-10-08T00:58:07.471Z,956.46
2016-10-08T00:59:08.113Z,956.42
2016-10-08T01:00:08.710Z,956.38
2016-10-08T01:01:07.473Z,956.38
2016-10-08T01:02:08.201Z,956.35
2016-10-08T01:03:07.895Z,956.35
2016-10-08T01:04:07.610Z,956.33
2016-10-08T01:05:08.255Z,956.34
2016-10-08T01:06:08.089Z,956.33
2016-10-08T01:07:07.482Z,956.33
2016-10-08T01:08:08.534Z,956.34
2016-10-08T01:09:07.827Z,956.38
2016-10-08T01:10:07.582Z,956.35
2016-10-08T01:11:08.163Z,956.35
2016-10-08T01:12:07.807Z,956.40
2016-10-08T01:13:07.472Z,956.35
2016-10-08T01:14:08.123Z,956.38
2016-10-08T01:15:07.820Z,956.31
2016-10-08T01:16:07.488Z,956.27
2016-10-08T01:17:08.108Z,956.28
2016-10-08T01:18:07.967Z,956.27
2016-10-08T01:19:07.491Z,956.28
2016-10-08T01:20:08.285Z,956.28
2016-10-08T01:21:07.893Z,956.32
2016-10-08T01:22:07.596Z,956.35
2016-10-08T01:23:08.254Z,956.34
2016-10-08T01:24:07.759Z,956.29
2016-10-08T01:25:07.491Z,956.31
2016-10-08T01:26:08.119Z,956.32
2016-10-08T01:27:07.832Z,956.27
2016-10-08T01:28:07.478Z,956.25
2016-10-08T01:29:08.228Z,956.24
2016-10-08T01:30:07.833Z,956.22
2016-10-08T01:31:21.520Z,956.16
2016-10-08T01:32:08.095Z,956.16
2016-10-08T01:33:07.817Z,956.15
2016-10-08T01:34:07.399Z,956.12
2016-10-08T01:35:08.094Z,956.12
2016-10-08T01:36:07.720Z,956.06
2016-10-08T01:37:07.444Z,956.05
2016-10-08T01:38:08.124Z,955.98
2016-10-08T01:39:07.729Z,956.03
2016-10-08T01:40:07.453Z,956.00
2016-10-08T01:41:08.064Z,955.99
2016-10-08T01:42:07.743Z,955.99
2016-10-08T01:43:07.408Z,955.99
2016-10-08T01:44:08.044Z,955.96
2016-10-08T01:45:07.749Z,955.97
2016-10-08T01:46:07.341Z,955.99
2016-10-08T01:47:08.002Z,956.01
2016-10-08T01:48:07.721Z,955.97
2016-10-08T01:49:07.327Z,956.02
2016-10-08T01:50:08.051Z,956.04
2016-10-08T01:51:07.650Z,956.06
2016-10-08T01:52:07.343Z,956.07
2016-10-08T01:53:08.023Z,956.07
2016-10-08T01:54:07.694Z,956.00
2016-10-08T01:55:07.354Z,956.04
2016-10-08T01:56:07.968Z,956.02
2016-10-08T01:57:07.623Z,956.02
2016-10-08T01:58:07.290Z,956.03
2016-10-08T01:59:07.951Z,956.02
2016-10-08T02:00:07.823Z,956.01
2016-10-08T02:01:07.262Z,956.00
2016-10-08T02:02:07.936Z,956.04
2016-10-08T02:03:07.641Z,956.03
2016-10-08T02:04:07.269Z,956.02
2016-10-08T02:05:07.973Z,956.02
2016-10-08T02:06:07.562Z,956.00
2016-10-08T02:07:07.218Z,956.02
2016-10-08T02:08:07.888Z,956.00
2016-10-08T02:09:07.532Z,956.03
2016-10-08T02:10:08.265Z,955.95
2016-10-08T02:11:07.842Z,955.97
2016-10-08T02:12:07.495Z,955.96
2016-10-08T02:13:08.150Z,955.96
2016-10-08T02:14:07.829Z,955.95
2016-10-08T02:15:07.539Z,956.03
2016-10-08T02:16:08.247Z,955.99
2016-10-08T02:17:07.911Z,955.98
2016-10-08T02:18:07.687Z,955.92
2016-10-08T02:19:07.369Z,955.89
2016-10-08T02:20:08.042Z,955.88
2016-10-08T02:21:07.656Z,955.93
2016-10-08T02:22:07.327Z,955.89
2016-10-08T02:23:07.981Z,955.86
2016-10-08T02:24:07.677Z,955.88
2016-10-08T02:25:07.344Z,955.82
2016-10-08T02:26:07.973Z,955.88
2016-10-08T02:27:07.637Z,955.86
2016-10-08T02:28:07.325Z,955.90
2016-10-08T02:29:08.019Z,955.92
2016-10-08T02:30:07.695Z,955.81
2016-10-08T02:31:07.311Z,955.83
2016-10-08T02:32:07.970Z,955.85
2016-10-08T02:33:07.632Z,955.80
2016-10-08T02:34:07.211Z,955.85
2016-10-08T02:35:07.973Z,955.81
2016-10-08T02:36:07.537Z,955.78
2016-10-08T02:37:08.196Z,955.82
2016-10-08T02:38:07.878Z,955.85
2016-10-08T02:39:07.501Z,955.90
2016-10-08T02:40:08.221Z,955.85
2016-10-08T02:41:07.830Z,955.87
2016-10-08T02:42:07.495Z,955.85
2016-10-08T02:43:08.162Z,955.90
2016-10-08T02:44:07.824Z,955.83
2016-10-08T02:45:07.515Z,955.84
2016-10-08T02:46:08.138Z,955.80
2016-10-08T02:47:07.789Z,955.81
2016-10-08T02:48:07.497Z,955.79
2016-10-08T02:49:08.134Z,955.81
2016-10-08T02:50:07.832Z,955.81
2016-10-08T02:51:07.439Z,955.85
2016-10-08T02:52:08.119Z,955.79
2016-10-08T02:53:07.781Z,955.80
2016-10-08T02:54:07.458Z,955.79
2016-10-08T02:55:08.150Z,955.80
2016-10-08T02:56:07.743Z,955.79
2016-10-08T02:57:07.377Z,955.82
2016-10-08T02:58:08.028Z,955.81
2016-10-08T02:59:07.746Z,955.82
2016-10-08T03:00:07.400Z,955.82
2016-10-08T03:01:08.040Z,955.80
2016-10-08T03:02:07.695Z,955.76
2016-10-08T03:03:07.360Z,955.78
2016-10-08T03:04:07.978Z,955.79
2016-10-08T03:05:07.818Z,955.79
2016-10-08T03:06:07.315Z,955.78
2016-10-08T03:07:07.956Z,955.75
2016-10-08T03:08:07.652Z,955.79
2016-10-08T03:09:07.293Z,955.73
2016-10-08T03:10:07.985Z,955.74
2016-10-08T03:11:07.614Z,955.77
2016-10-08T03:12:07.272Z,955.75
2016-10-08T03:13:07.957Z,955.73
2016-10-08T03:14:07.625Z,955.68
2016-10-08T03:15:07.308Z,955.70
2016-10-08T03:16:07.903Z,955.74
2016-10-08T03:17:07.573Z,955.73
2016-10-08T03:18:07.383Z,955.75
2016-10-08T03:19:08.097Z,955.76
2016-10-08T03:20:07.811Z,955.77
2016-10-08T03:21:07.403Z,955.76
2016-10-08T03:22:08.056Z,955.76
2016-10-08T03:23:07.697Z,955.76
2016-10-08T03:24:07.317Z,955.78
2016-10-08T03:25:08.027Z,955.76
2016-10-08T03:26:07.625Z,955.75
2016-10-08T03:27:07.277Z,955.77
2016-10-08T03:28:07.976Z,955.76
2016-10-08T03:29:07.586Z,955.76
2016-10-08T03:30:07.281Z,955.79
2016-10-08T03:31:07.894Z,955.78
2016-10-08T03:32:07.587Z,955.75
2016-10-08T03:33:07.478Z,955.83
2016-10-08T03:34:07.988Z,955.83
2016-10-08T03:35:07.715Z,955.81
2016-10-08T03:36:07.299Z,955.79
2016-10-08T03:37:07.954Z,955.79
2016-10-08T03:38:07.581Z,955.77
2016-10-08T03:39:07.243Z,955.85
2016-10-08T03:40:07.978Z,955.80
2016-10-08T03:41:07.595Z,955.82
2016-10-08T03:42:07.845Z,955.86
2016-10-08T03:43:07.495Z,955.84
2016-10-08T03:44:08.119Z,955.82
2016-10-08T03:45:07.864Z,955.84
2016-10-08T03:46:07.471Z,955.86
2016-10-08T03:47:08.112Z,955.85
2016-10-08T03:48:07.805Z,955.84
2016-10-08T03:49:07.529Z,955.82
2016-10-08T03:50:08.138Z,955.85
2016-10-08T03:51:07.728Z,955.79
2016-10-08T03:52:07.435Z,955.81
2016-10-08T03:53:08.134Z,955.82
2016-10-08T03:54:07.777Z,955.76
2016-10-08T03:55:07.501Z,955.79
2016-10-08T03:56:08.113Z,955.85
2016-10-08T03:57:07.782Z,955.81
2016-10-08T03:58:07.409Z,955.84
2016-10-08T03:59:08.101Z,955.85
2016-10-08T04:00:07.820Z,955.84
2016-10-08T04:01:07.427Z,955.83
2016-10-08T04:02:08.145Z,955.86
2016-10-08T04:03:07.828Z,955.86
2016-10-08T04:04:07.471Z,955.84
2016-10-08T04:05:08.153Z,955.89
2016-10-08T04:06:07.740Z,955.88
2016-10-08T04:07:07.430Z,955.85
2016-10-08T04:08:08.064Z,955.86
2016-10-08T04:09:07.788Z,955.90
2016-10-08T04:10:07.511Z,955.91
2016-10-08T04:11:08.213Z,955.90
2016-10-08T04:12:07.790Z,955.89
2016-10-08T04:13:07.456Z,955.95
2016-10-08T04:14:08.145Z,955.93
2016-10-08T04:15:07.822Z,955.91
2016-10-08T04:16:07.471Z,955.92
2016-10-08T04:17:08.213Z,955.92
2016-10-08T04:18:07.991Z,955.95
2016-10-08T04:19:07.625Z,955.94
2016-10-08T04:20:07.283Z,955.93
2016-10-08T04:21:07.890Z,955.94
2016-10-08T04:22:07.542Z,955.93
2016-10-08T04:23:07.213Z,955.92
2016-10-08T04:24:07.879Z,955.96
2016-10-08T04:25:10.061Z,955.99
2016-10-08T04:26:07.950Z,955.97
2016-10-08T04:27:07.591Z,955.96
2016-10-08T04:28:07.228Z,955.94
2016-10-08T04:29:07.876Z,955.98
2016-10-08T04:30:07.545Z,955.93
2016-10-08T04:31:07.271Z,955.93
2016-10-08T04:32:07.891Z,955.96
2016-10-08T04:33:07.552Z,955.95
2016-10-08T04:34:08.169Z,955.96
2016-10-08T04:35:07.869Z,955.95
2016-10-08T04:36:07.571Z,955.95
2016-10-08T04:37:08.181Z,955.96
2016-10-08T04:38:07.840Z,955.97
2016-10-08T04:39:07.499Z,955.95
2016-10-08T04:40:07.199Z,955.99
2016-10-08T04:41:07.951Z,955.98
2016-10-08T04:42:07.530Z,956.02
2016-10-08T04:43:07.219Z,956.05
2016-10-08T04:44:07.879Z,956.00
2016-10-08T04:45:07.520Z,956.04
2016-10-08T04:46:09.322Z,956.01
2016-10-08T04:47:07.808Z,956.07
2016-10-08T04:48:07.512Z,956.11
2016-10-08T04:49:08.110Z,956.08
2016-10-08T04:50:07.785Z,956.06
2016-10-08T04:51:07.427Z,956.08
2016-10-08T04:52:08.135Z,956.09
2016-10-08T04:53:07.749Z,956.15
2016-10-08T04:54:07.377Z,956.07
2016-10-08T04:55:08.071Z,956.14
2016-10-08T04:56:07.720Z,956.11
2016-10-08T04:57:07.439Z,956.14
2016-10-08T04:58:08.036Z,956.14
2016-10-08T04:59:07.720Z,956.13
2016-10-08T05:00:07.381Z,956.14
2016-10-08T05:01:08.024Z,956.16
2016-10-08T05:02:07.715Z,956.12
2016-10-08T05:03:07.360Z,956.14
2016-10-08T05:04:07.962Z,956.08
2016-10-08T05:05:07.607Z,956.14
2016-10-08T05:06:07.255Z,956.15
2016-10-08T05:07:07.951Z,956.19
2016-10-08T05:08:07.564Z,956.22
2016-10-08T05:09:07.193Z,956.18
2016-10-08T05:10:07.880Z,956.25
2016-10-08T05:11:07.490Z,956.24
2016-10-08T05:12:07.250Z,956.21
2016-10-08T05:13:07.893Z,956.22
2016-10-08T05:14:07.568Z,956.26
2016-10-08T05:15:08.180Z,956.24
2016-10-08T05:16:07.817Z,956.23
2016-10-08T05:17:07.612Z,956.25
2016-10-08T05:18:07.343Z,956.28
2016-10-08T05:19:07.941Z,956.30
2016-10-08T05:20:07.622Z,956.30
2016-10-08T05:21:07.252Z,956.33
2016-10-08T05:22:07.941Z,956.35
2016-10-08T05:23:07.577Z,956.33
2016-10-08T05:24:07.243Z,956.34
2016-10-08T05:25:07.903Z,956.38
2016-10-08T05:26:07.549Z,956.37
2016-10-08T05:27:07.260Z,956.38
2016-10-08T05:28:07.896Z,956.37
2016-10-08T05:29:07.529Z,956.37
2016-10-08T05:30:08.174Z,956.40
2016-10-08T05:31:07.828Z,956.37
2016-10-08T05:32:07.519Z,956.41
2016-10-08T05:33:08.402Z,956.37
2016-10-08T05:34:08.013Z,956.41
2016-10-08T05:35:07.634Z,956.42
2016-10-08T05:36:07.311Z,956.41
2016-10-08T05:37:08.005Z,956.38
2016-10-08T05:38:07.603Z,956.42
2016-10-08T05:39:07.366Z,956.42
2016-10-08T05:40:07.919Z,956.45
2016-10-08T05:41:07.560Z,956.43
2016-10-08T05:42:07.280Z,956.45
2016-10-08T05:43:07.876Z,956.46
2016-10-08T05:44:07.513Z,956.42
2016-10-08T05:45:08.167Z,956.44
2016-10-08T05:46:07.802Z,956.44
2016-10-08T05:47:07.517Z,956.44
2016-10-08T05:48:08.196Z,956.43
2016-10-08T05:49:07.751Z,956.46
2016-10-08T05:50:07.442Z,956.47
2016-10-08T05:51:08.077Z,956.47
2016-10-08T05:52:07.805Z,956.48
2016-10-08T05:53:07.449Z,956.47
2016-10-08T05:54:08.072Z,956.48
2016-10-08T05:55:07.746Z,956.48
2016-10-08T05:56:07.399Z,956.47
2016-10-08T05:57:08.123Z,956.44
2016-10-08T05:58:07.709Z,956.47
2016-10-08T05:59:07.377Z,956.45
2016-10-08T06:00:08.029Z,956.48
2016-10-08T06:01:07.666Z,956.50
2016-10-08T06:02:07.409Z,956.50
2016-10-08T06:03:07.408Z,956.56
2016-10-08T06:04:07.987Z,956.58
2016-10-08T06:05:07.617Z,956.55
2016-10-08T06:06:07.252Z,956.58
2016-10-08T06:07:07.968Z,956.61
2016-10-08T06:08:07.572Z,956.59
2016-10-08T06:09:07.235Z,956.60
2016-10-08T06:10:07.899Z,956.59
2016-10-08T06:11:07.539Z,956.60
2016-10-08T06:12:07.263Z,956.62
2016-10-08T06:13:08.040Z,956.64
2016-10-08T06:14:07.689Z,956.65
2016-10-08T06:15:07.333Z,956.62
2016-10-08T06:16:08.010Z,956.64
2016-10-08T06:17:07.777Z,956.59
2016-10-08T06:18:07.451Z,956.63
2016-10-08T06:19:08.132Z,956.64
2016-10-08T06:20:07.728Z,956.66
2016-10-08T06:21:07.409Z,956.62
2016-10-08T06:22:08.079Z,956.64
2016-10-08T06:23:07.712Z,956.66
2016-10-08T06:24:07.351Z,956.62
2016-10-08T06:25:07.997Z,956.66
2016-10-08T06:26:07.634Z,956.67
2016-10-08T06:27:07.357Z,956.68
2016-10-08T06:28:07.922Z,956.66
2016-10-08T06:29:07.622Z,956.63
2016-10-08T06:30:07.247Z,956.69
2016-10-08T06:31:07.945Z,956.66
2016-10-08T06:32:07.643Z,956.66
2016-10-08T06:33:07.268Z,956.67
2016-10-08T06:34:07.949Z,956.68
2016-10-08T06:35:07.576Z,956.71
2016-10-08T06:36:07.227Z,956.70
2016-10-08T06:37:07.991Z,956.70
2016-10-08T06:38:07.521Z,956.72
2016-10-08T06:39:08.166Z,956.72
2016-10-08T06:40:07.837Z,956.71
2016-10-08T06:41:07.482Z,956.76
2016-10-08T06:42:08.223Z,956.67
2016-10-08T06:43:07.843Z,956.68
2016-10-08T06:44:07.494Z,956.70
2016-10-08T06:45:08.121Z,956.70
2016-10-08T06:46:07.818Z,956.70
2016-10-08T06:47:07.530Z,956.70
2016-10-08T06:48:08.185Z,956.73
2016-10-08T06:49:07.839Z,956.72
2016-10-08T06:50:07.451Z,956.75
2016-10-08T06:51:08.090Z,956.76
2016-10-08T06:52:07.815Z,956.78
2016-10-08T06:53:07.380Z,956.80
2016-10-08T06:54:11.437Z,956.84
2016-10-08T06:55:07.753Z,956.81
2016-10-08T06:56:07.425Z,956.82
2016-10-08T06:57:08.125Z,956.81
2016-10-08T06:58:07.749Z,956.79
2016-10-08T06:59:07.424Z,956.79
2016-10-08T07:00:08.071Z,956.86
2016-10-08T07:01:07.712Z,956.85
2016-10-08T07:02:07.431Z,956.86
2016-10-08T07:03:08.043Z,956.84
2016-10-08T07:04:07.736Z,956.86
2016-10-08T07:05:07.357Z,956.82
2016-10-08T07:06:08.004Z,956.85
2016-10-08T07:07:07.700Z,956.82
2016-10-08T07:08:07.327Z,956.83
2016-10-08T07:09:07.988Z,956.82
2016-10-08T07:10:07.641Z,956.80
2016-10-08T07:11:07.242Z,956.79
2016-10-08T07:12:07.903Z,956.82
2016-10-08T07:13:07.542Z,956.80
2016-10-08T07:14:08.191Z,956.81
2016-10-08T07:15:07.854Z,956.88
2016-10-08T07:16:07.530Z,956.89
2016-10-08T07:17:08.273Z,956.89
2016-10-08T07:18:07.962Z,956.88
2016-10-08T07:19:07.693Z,956.90
2016-10-08T07:20:07.270Z,956.86
2016-10-08T07:21:07.889Z,956.91
2016-10-08T07:22:07.551Z,956.94
2016-10-08T07:23:07.252Z,956.94
2016-10-08T07:24:07.889Z,956.99
2016-10-08T07:25:07.542Z,956.98
2016-10-08T07:26:08.169Z,956.97
2016-10-08T07:27:07.847Z,956.99
2016-10-08T07:28:07.530Z,957.01
2016-10-08T07:29:08.120Z,957.02
2016-10-08T07:30:07.776Z,956.97
2016-10-08T07:31:07.428Z,956.99
2016-10-08T07:32:08.037Z,957.02
2016-10-08T07:33:07.748Z,957.01
2016-10-08T07:34:07.420Z,957.01
2016-10-08T07:35:08.011Z,957.01
2016-10-08T07:36:07.630Z,957.06
2016-10-08T07:37:07.420Z,957.04
2016-10-08T07:38:08.176Z,957.05
2016-10-08T07:39:07.729Z,957.08
2016-10-08T07:40:07.391Z,957.05
2016-10-08T07:41:08.051Z,957.04
2016-10-08T07:42:07.691Z,957.05
2016-10-08T07:43:07.368Z,957.05
2016-10-08T07:44:07.946Z,957.08
2016-10-08T07:45:07.665Z,957.06
2016-10-08T07:46:07.313Z,957.07
2016-10-08T07:47:07.957Z,957.08
2016-10-08T07:48:07.629Z,957.12
2016-10-08T07:49:07.415Z,957.16
2016-10-08T07:50:08.048Z,957.14
2016-10-08T07:51:07.694Z,957.13
2016-10-08T07:52:07.343Z,957.13
2016-10-08T07:53:08.057Z,957.20
2016-10-08T07:54:07.620Z,957.16
2016-10-08T07:55:07.288Z,957.16
2016-10-08T07:56:07.969Z,957.24
2016-10-08T07:57:07.612Z,957.21
2016-10-08T07:58:07.252Z,957.27
2016-10-08T07:59:08.503Z,957.24
2016-10-08T08:00:07.551Z,957.25
2016-10-08T08:01:08.187Z,957.24
2016-10-08T08:02:07.907Z,957.22
2016-10-08T08:03:07.529Z,957.27
2016-10-08T08:04:08.176Z,957.21
2016-10-08T08:05:07.764Z,957.26
2016-10-08T08:06:07.447Z,957.23
2016-10-08T08:07:08.377Z,957.26
2016-10-08T08:08:08.082Z,957.36
2016-10-08T08:09:07.776Z,957.34
2016-10-08T08:10:07.327Z,957.32
2016-10-08T08:11:08.012Z,957.37
2016-10-08T08:12:07.647Z,957.39
2016-10-08T08:13:07.353Z,957.36
2016-10-08T08:14:08.377Z,957.41
2016-10-08T08:15:07.653Z,957.37
2016-10-08T08:16:07.245Z,957.37
2016-10-08T08:17:07.959Z,957.37
2016-10-08T08:18:07.741Z,957.37
2016-10-08T08:19:07.365Z,957.36
2016-10-08T08:20:07.964Z,957.39
2016-10-08T08:21:07.614Z,957.37
2016-10-08T08:22:07.359Z,957.35
2016-10-08T08:23:08.032Z,957.37
2016-10-08T08:24:07.664Z,957.36
2016-10-08T08:25:07.303Z,957.37
2016-10-08T08:26:07.998Z,957.36
2016-10-08T08:27:07.645Z,957.38
2016-10-08T08:28:07.344Z,957.34
2016-10-08T08:29:08.373Z,957.36
2016-10-08T08:30:07.584Z,957.35
2016-10-08T08:31:07.204Z,957.36
2016-10-08T08:32:07.897Z,957.37
2016-10-08T08:33:07.609Z,957.39
2016-10-08T08:34:07.289Z,957.37
2016-10-08T08:35:07.887Z,957.39
2016-10-08T08:36:07.574Z,957.41
2016-10-08T08:37:08.149Z,957.45
2016-10-08T08:38:07.861Z,957.41
2016-10-08T08:39:07.565Z,957.42
2016-10-08T08:40:07.235Z,957.43
2016-10-08T08:41:07.857Z,957.44
2016-10-08T08:42:07.500Z,957.44
2016-10-08T08:43:08.206Z,957.45
2016-10-08T08:44:07.837Z,957.46
2016-10-08T08:45:07.491Z,957.44
2016-10-08T08:46:08.308Z,957.44
2016-10-08T08:47:07.789Z,957.47
2016-10-08T08:48:07.500Z,957.45
2016-10-08T08:49:08.185Z,957.49
2016-10-08T08:50:07.769Z,957.47
2016-10-08T08:51:07.406Z,957.46
2016-10-08T08:52:08.072Z,957.45
2016-10-08T08:53:07.929Z,957.49
2016-10-08T08:54:07.528Z,957.43
2016-10-08T08:55:07.237Z,957.46
2016-10-08T08:56:07.880Z,957.49
2016-10-08T08:57:07.538Z,957.42
2016-10-08T08:58:08.204Z,957.47
2016-10-08T08:59:07.854Z,957.53
2016-10-08T09:00:07.517Z,957.49
2016-10-08T09:01:08.161Z,957.53
2016-10-08T09:02:07.827Z,957.48
2016-10-08T09:03:07.536Z,957.52
2016-10-08T09:04:08.222Z,957.53
2016-10-08T09:05:07.798Z,957.49
2016-10-08T09:06:07.517Z,957.51
2016-10-08T09:07:08.176Z,957.52
2016-10-08T09:08:07.888Z,957.49
2016-10-08T09:09:07.487Z,957.51
2016-10-08T09:10:08.166Z,957.44
2016-10-08T09:11:07.830Z,957.45
2016-10-08T09:12:07.562Z,957.49
2016-10-08T09:13:08.159Z,957.46
2016-10-08T09:14:07.756Z,957.46
2016-10-08T09:15:07.439Z,957.41
2016-10-08T09:16:08.100Z,957.47
2016-10-08T09:17:07.888Z,957.49
2016-10-08T09:18:07.655Z,957.48
2016-10-08T09:19:07.258Z,957.46
2016-10-08T09:20:07.925Z,957.47
2016-10-08T09:21:07.566Z,957.45
2016-10-08T09:22:07.184Z,957.48
2016-10-08T09:23:07.857Z,957.48
2016-10-08T09:24:07.495Z,957.50
2016-10-08T09:25:08.130Z,957.51
2016-10-08T09:26:13.349Z,957.49
2016-10-08T09:27:07.447Z,957.51
2016-10-08T09:28:08.136Z,957.55
2016-10-08T09:29:07.746Z,957.51
2016-10-08T09:30:07.404Z,957.53
2016-10-08T09:31:08.044Z,957.55
2016-10-08T09:32:07.669Z,957.58
2016-10-08T09:33:07.416Z,957.54
2016-10-08T09:34:09.108Z,957.54
2016-10-08T09:35:07.746Z,957.55
2016-10-08T09:36:07.491Z,957.55
2016-10-08T09:37:07.971Z,957.55
2016-10-08T09:38:07.690Z,957.56
2016-10-08T09:39:07.285Z,957.57
2016-10-08T09:40:07.959Z,957.53
2016-10-08T09:41:07.589Z,957.56
2016-10-08T09:42:07.275Z,957.58
2016-10-08T09:43:07.992Z,957.55
2016-10-08T09:44:07.581Z,957.56
2016-10-08T09:45:07.237Z,957.54
2016-10-08T09:46:07.912Z,957.56
2016-10-08T09:47:07.577Z,957.58
2016-10-08T09:48:07.256Z,957.62
2016-10-08T09:49:07.871Z,957.62
2016-10-08T09:50:07.550Z,957.61
2016-10-08T09:51:08.152Z,957.63
2016-10-08T09:52:07.816Z,957.70
2016-10-08T09:53:07.489Z,957.60
2016-10-08T09:54:08.116Z,957.68
2016-10-08T09:55:07.790Z,957.69
2016-10-08T09:56:07.447Z,957.70
2016-10-08T09:57:08.054Z,957.70
2016-10-08T09:58:07.773Z,957.73
2016-10-08T09:59:07.372Z,957.73
2016-10-08T10:00:08.055Z,957.77
2016-10-08T10:01:07.671Z,957.72
2016-10-08T10:02:07.343Z,957.75
2016-10-08T10:03:07.993Z,957.73
2016-10-08T10:04:07.644Z,957.74
2016-10-08T10:05:07.334Z,957.75
2016-10-08T10:06:09.150Z,957.73
2016-10-08T10:07:07.591Z,957.78
2016-10-08T10:08:07.240Z,957.76
2016-10-08T10:09:07.870Z,957.77
2016-10-08T10:10:07.534Z,957.75
2016-10-08T10:11:07.219Z,957.77
2016-10-08T10:12:07.914Z,957.75
2016-10-08T10:13:07.578Z,957.78
2016-10-08T10:14:08.174Z,957.78
2016-10-08T10:15:07.835Z,957.78
2016-10-08T10:16:07.482Z,957.81
2016-10-08T10:17:08.270Z,957.84
2016-10-08T10:18:07.938Z,957.81
2016-10-08T10:19:07.606Z,957.82
2016-10-08T10:20:07.353Z,957.82
2016-10-08T10:21:07.942Z,957.82
2016-10-08T10:22:07.628Z,957.81
2016-10-08T10:23:07.323Z,957.83
2016-10-08T10:24:07.940Z,957.84
2016-10-08T10:25:07.587Z,957.88
2016-10-08T10:26:07.201Z,957.81
2016-10-08T10:27:07.870Z,957.83
2016-10-08T10:28:07.538Z,957.84
2016-10-08T10:29:08.951Z,957.88
2016-10-08T10:30:07.619Z,957.85
2016-10-08T10:31:07.311Z,957.87
2016-10-08T10:32:07.918Z,957.85
2016-10-08T10:33:07.626Z,957.86
2016-10-08T10:34:07.238Z,957.85
2016-10-08T10:35:07.940Z,957.85
2016-10-08T10:36:07.528Z,957.84
2016-10-08T10:37:08.160Z,957.84
2016-10-08T10:38:08.296Z,957.86
2016-10-08T10:39:07.452Z,957.85
2016-10-08T10:40:07.223Z,957.88
2016-10-08T10:41:07.871Z,957.88
2016-10-08T10:42:07.580Z,957.88
2016-10-08T10:43:08.236Z,957.93
2016-10-08T10:44:07.943Z,957.91
2016-10-08T10:45:07.481Z,957.91
2016-10-08T10:46:08.185Z,957.90
2016-10-08T10:47:07.773Z,957.91
2016-10-08T10:48:07.451Z,957.90
2016-10-08T10:49:08.131Z,957.90
2016-10-08T10:50:07.783Z,957.88
2016-10-08T10:51:07.394Z,957.88
2016-10-08T10:52:08.040Z,957.84
2016-10-08T10:53:07.731Z,957.88
2016-10-08T10:54:07.445Z,957.87
2016-10-08T10:55:08.011Z,957.89
2016-10-08T10:56:07.645Z,957.88
2016-10-08T10:57:07.296Z,957.87
2016-10-08T10:58:07.953Z,957.88
2016-10-08T10:59:08.780Z,957.86
2016-10-08T11:00:07.250Z,957.87
2016-10-08T11:01:07.875Z,957.85
2016-10-08T11:02:07.535Z,957.87
2016-10-08T11:03:07.241Z,957.84
2016-10-08T11:04:07.874Z,957.85
2016-10-08T11:05:07.583Z,957.85
2016-10-08T11:06:09.239Z,957.84
2016-10-08T11:07:07.876Z,957.86
2016-10-08T11:08:07.505Z,957.83
2016-10-08T11:09:07.243Z,957.87
2016-10-08T11:10:07.913Z,957.85
2016-10-08T11:11:07.562Z,957.88
2016-10-08T11:12:08.193Z,957.86
2016-10-08T11:13:07.893Z,957.85
2016-10-08T11:14:07.528Z,957.85
2016-10-08T11:15:08.173Z,957.86
2016-10-08T11:16:07.758Z,957.83
2016-10-08T11:17:07.516Z,957.88
2016-10-08T11:18:07.223Z,957.81
2016-10-08T11:19:07.855Z,957.85
2016-10-08T11:20:07.515Z,957.87
2016-10-08T11:21:08.160Z,957.89
2016-10-08T11:22:07.758Z,957.85
2016-10-08T11:23:07.482Z,957.89
2016-10-08T11:24:08.083Z,957.91
2016-10-08T11:25:07.785Z,957.89
2016-10-08T11:26:07.496Z,957.90
2016-10-08T11:27:08.058Z,957.91
2016-10-08T11:28:07.728Z,957.91
2016-10-08T11:29:07.336Z,957.84
2016-10-08T11:30:08.037Z,957.85
2016-10-08T11:31:07.655Z,957.89
2016-10-08T11:32:07.276Z,957.89
2016-10-08T11:33:08.104Z,957.90
2016-10-08T11:34:07.737Z,957.88
2016-10-08T11:35:07.447Z,957.91
2016-10-08T11:36:08.079Z,957.92
2016-10-08T11:37:07.689Z,957.89
2016-10-08T11:38:07.399Z,957.87
2016-10-08T11:39:08.575Z,957.88
2016-10-08T11:40:07.741Z,957.88
2016-10-08T11:41:07.359Z,957.91
2016-10-08T11:42:07.997Z,957.87
2016-10-08T11:43:07.706Z,957.85
2016-10-08T11:44:07.320Z,957.90
2016-10-08T11:45:08.036Z,957.85
2016-10-08T11:46:07.694Z,957.86
2016-10-08T11:47:07.343Z,957.86
2016-10-08T11:48:08.015Z,957.88
2016-10-08T11:49:07.674Z,957.89
2016-10-08T11:50:07.354Z,957.87
2016-10-08T11:51:07.997Z,957.89
2016-10-08T11:52:07.653Z,957.92
2016-10-08T11:53:07.377Z,957.97
2016-10-08T11:54:08.077Z,957.93
2016-10-08T11:55:07.773Z,957.91
2016-10-08T11:56:07.387Z,957.95
2016-10-08T11:57:08.047Z,957.95
2016-10-08T11:58:07.698Z,957.99
2016-10-08T11:59:07.411Z,957.97
2016-10-08T12:00:08.101Z,958.00
2016-10-08T12:01:07.751Z,957.98
2016-10-08T12:02:07.389Z,957.95
2016-10-08T12:03:08.012Z,958.04
2016-10-08T12:04:07.661Z,957.97
2016-10-08T12:05:07.345Z,957.99
2016-10-08T12:06:07.998Z,957.98
2016-10-08T12:07:07.602Z,957.96
2016-10-08T12:08:07.229Z,958.00
2016-10-08T12:09:07.879Z,958.01
2016-10-08T12:10:07.626Z,958.01
2016-10-08T12:11:07.228Z,957.97
2016-10-08T12:12:07.901Z,958.02
2016-10-08T12:13:07.644Z,958.04
2016-10-08T12:14:07.268Z,958.02
2016-10-08T12:15:07.952Z,958.02
2016-10-08T12:16:07.576Z,958.03
2016-10-08T12:17:07.313Z,958.00
2016-10-08T12:18:08.247Z,957.97
2016-10-08T12:19:07.666Z,957.99
2016-10-08T12:20:07.350Z,958.05
2016-10-08T12:21:07.981Z,958.01
2016-10-08T12:22:07.609Z,958.06
2016-10-08T12:23:07.249Z,958.04
2016-10-08T12:24:13.441Z,958.06
2016-10-08T12:25:07.620Z,958.05
2016-10-08T12:26:07.222Z,958.04
2016-10-08T12:27:07.856Z,958.04
2016-10-08T12:28:07.523Z,958.08